Moby Baby — ICEM — position and weather

sailwx.info

Track history (hours):
 
Tides and Currents Weather Stations Pressure Air Temp Water Temp Dewpoint Dewpoint Depression Visibility Wind Speed Wind Dir Waves Ship Positions

Moby Baby

Last reported at 2016-May-05 19:30 UTC. Time now 2016-May-06 03:36 UTC.
Position N 42°48' E 010°20'.

Length 99 m; draft 4.5 m.

Type: Ship. MMSI: 247049900.

Date/timePositionNaut miles runAvg speedWind from/ knotsBaromVisibWave heightAir tempDewpointWater temp
2016-May-05 19:30N 42°48' E 010°20'6 2.9
2016-May-05 17:34N 42°53' E 010°24'1 0.7
2016-May-05 15:33N 42°53' E 010°26'6 6.0
2016-May-05 14:33N 42°56' E 010°33'13 8.4
2016-May-05 13:03N 42°48' E 010°20'1 0.2
2016-May-05 07:06N 42°49' E 010°21'1014.8
2016-May-05 06:25N 42°54' E 010°33'11 6.0
2016-May-05 04:33N 42°49' E 010°19'0 0.1
2016-May-05 03:13N 42°49' E 010°19'0 0.0
2016-May-05 02:33N 42°49' E 010°19'0 0.0
2016-May-05 01:33N 42°49' E 010°19'0 0.0
2016-May-05 00:33N 42°49' E 010°19'0 0.0
2016-May-04 23:30N 42°49' E 010°19'0 0.0
2016-May-04 21:32N 42°49' E 010°19'0 0.0
2016-May-04 20:23N 42°49' E 010°19'0 0.3
2016-May-04 19:30N 42°49' E 010°20'1213.2
2016-May-04 18:33N 42°56' E 010°33'7 6.8
2016-May-04 17:33N 42°53' E 010°25'1 0.3
2016-May-04 15:33N 42°53' E 010°26'6 6.1
2016-May-04 14:32N 42°56' E 010°33'1212.7
2016-May-04 13:34N 42°49' E 010°19'7 6.5
2016-May-04 12:33N 42°53' E 010°26'6 2.1
2016-May-04 09:33N 42°56' E 010°33'1312.6
2016-May-04 08:33N 42°49' E 010°19'0 0.0
2016-May-04 07:33N 42°49' E 010°19'10 9.3
2016-May-04 06:31N 42°54' E 010°30'3 3.3
2016-May-04 05:33N 42°56' E 010°33'13 9.1
2016-May-04 04:09N 42°49' E 010°19'0 0.0
2016-May-04 02:11N 42°49' E 010°19'0 0.0
2016-May-03 23:27N 42°49' E 010°19'0 0.0
2016-May-03 22:14N 42°49' E 010°19'0 0.0
2016-May-03 21:32N 42°49' E 010°19'0 0.0
2016-May-03 20:33N 42°49' E 010°19'0 0.1
2016-May-03 19:31N 42°49' E 010°19'6 2.8
2016-May-03 17:33N 42°53' E 010°24'6 5.5
2016-May-03 16:33N 42°49' E 010°19'6 6.4
2016-May-03 15:33N 42°53' E 010°26'6 6.4
2016-May-03 14:33N 42°56' E 010°34'1312.5
2016-May-03 13:32N 42°49' E 010°19'7 7.4
2016-May-03 12:33N 42°53' E 010°27'6 1.9
2016-May-03 09:33N 42°56' E 010°34'1312.7
2016-May-03 08:33N 42°49' E 010°19'0 0.0
2016-May-03 07:33N 42°49' E 010°19'9 8.9
2016-May-03 06:34N 42°54' E 010°29'4 3.8
2016-May-03 05:34N 42°56' E 010°33'13 5.9
2016-May-03 03:24N 42°49' E 010°19'0 0.0
2016-May-03 01:33N 42°49' E 010°19'0 0.0
2016-May-03 00:32N 42°49' E 010°19'0 0.0
2016-May-02 23:33N 42°49' E 010°19'0 0.0
2016-May-02 19:31N 42°49' E 010°19'5 2.7
2016-May-02 17:33N 42°53' E 010°24'2 0.0
2016-Apr-30 15:31N 42°54' E 010°27'5 5.5
2016-Apr-30 14:33N 42°56' E 010°33'12 9.2
2016-Apr-30 13:12N 42°49' E 010°19'710.5
2016-Apr-30 12:33N 42°53' E 010°26'6 2.0
2016-Apr-30 09:33N 42°56' E 010°33'12 5.7
2016-Apr-30 07:21N 42°49' E 010°19'911.2
2016-Apr-30 06:33N 42°54' E 010°29'4 3.7
2016-Apr-30 05:32N 42°56' E 010°33'13 2.9
2016-Apr-30 01:07N 42°49' E 010°19'0 0.0
2016-Apr-29 21:33N 42°49' E 010°19'0 0.0
2016-Apr-29 20:31N 42°49' E 010°19'0 0.1
2016-Apr-29 19:34N 42°49' E 010°19'13 8.8
2016-Apr-29 18:08N 42°56' E 010°33'712.3
2016-Apr-29 17:34N 42°53' E 010°24'5 5.5
2016-Apr-29 16:33N 42°49' E 010°19'6 5.8
2016-Apr-29 15:34N 42°53' E 010°25'7 6.9
2016-Apr-29 14:33N 42°56' E 010°33'1312.5
2016-Apr-29 13:33N 42°49' E 010°19'7 6.7
2016-Apr-29 12:33N 42°53' E 010°26'6 2.0
2016-Apr-29 09:33N 42°56' E 010°33'13 5.6
2016-Apr-29 07:17N 42°49' E 010°19'1012.6
2016-Apr-29 06:32N 42°54' E 010°30'3 3.3
2016-Apr-29 05:33N 42°56' E 010°33'1311.8
2016-Apr-29 04:28N 42°49' E 010°19'0 0.0
2016-Apr-29 03:24N 42°49' E 010°19'0 0.0
2016-Apr-29 02:33N 42°49' E 010°19'0 0.0
2016-Apr-29 01:33N 42°49' E 010°19'0 0.0
2016-Apr-29 00:32N 42°49' E 010°19'0 0.0
2016-Apr-28 22:33N 42°49' E 010°19'0 0.0
2016-Apr-28 21:33N 42°49' E 010°19'0 0.0
2016-Apr-28 20:31N 42°49' E 010°19'0 0.1
2016-Apr-28 19:33N 42°49' E 010°19'1211.2
2016-Apr-28 18:28N 42°56' E 010°33'7 7.3
2016-Apr-28 17:33N 42°53' E 010°25'6 0.2
2016-Apr-27 15:18N 42°54' E 010°32'7 5.6
2016-Apr-27 14:08N 42°54' E 010°23'  
Track history (hours):
 
Tides and Currents Weather Stations Pressure Air Temp Water Temp Dewpoint Dewpoint Depression Visibility Wind Speed Wind Dir Waves Ship Positions

Moby Baby

Last reported at 2016-May-05 19:30 UTC. Time now 2016-May-06 03:36 UTC.
Position N 42°48' E 010°20'.

Length 99 m; draft 4.5 m.

Type: Ship. MMSI: 247049900.

Date/timePositionNaut miles runAvg speedWind from/ knotsBaromVisibWave heightAir tempDewpointWater temp
2016-May-05 19:30N 42°48' E 010°20'6 2.9
2016-May-05 17:34N 42°53' E 010°24'1 0.7
2016-May-05 15:33N 42°53' E 010°26'6 6.0
2016-May-05 14:33N 42°56' E 010°33'13 8.4
2016-May-05 13:03N 42°48' E 010°20'1 0.2
2016-May-05 07:06N 42°49' E 010°21'1014.8
2016-May-05 06:25N 42°54' E 010°33'11 6.0
2016-May-05 04:33N 42°49' E 010°19'0 0.1
2016-May-05 03:13N 42°49' E 010°19'0 0.0
2016-May-05 02:33N 42°49' E 010°19'0 0.0
2016-May-05 01:33N 42°49' E 010°19'0 0.0
2016-May-05 00:33N 42°49' E 010°19'0 0.0
2016-May-04 23:30N 42°49' E 010°19'0 0.0
2016-May-04 21:32N 42°49' E 010°19'0 0.0
2016-May-04 20:23N 42°49' E 010°19'0 0.3
2016-May-04 19:30N 42°49' E 010°20'1213.2
2016-May-04 18:33N 42°56' E 010°33'7 6.8
2016-May-04 17:33N 42°53' E 010°25'1 0.3
2016-May-04 15:33N 42°53' E 010°26'6 6.1
2016-May-04 14:32N 42°56' E 010°33'1212.7
2016-May-04 13:34N 42°49' E 010°19'7 6.5
2016-May-04 12:33N 42°53' E 010°26'6 2.1
2016-May-04 09:33N 42°56' E 010°33'1312.6
2016-May-04 08:33N 42°49' E 010°19'0 0.0
2016-May-04 07:33N 42°49' E 010°19'10 9.3
2016-May-04 06:31N 42°54' E 010°30'3 3.3
2016-May-04 05:33N 42°56' E 010°33'13 9.1
2016-May-04 04:09N 42°49' E 010°19'0 0.0
2016-May-04 02:11N 42°49' E 010°19'0 0.0
2016-May-03 23:27N 42°49' E 010°19'0 0.0
2016-May-03 22:14N 42°49' E 010°19'0 0.0
2016-May-03 21:32N 42°49' E 010°19'0 0.0
2016-May-03 20:33N 42°49' E 010°19'0 0.1
2016-May-03 19:31N 42°49' E 010°19'6 2.8
2016-May-03 17:33N 42°53' E 010°24'6 5.5
2016-May-03 16:33N 42°49' E 010°19'6 6.4
2016-May-03 15:33N 42°53' E 010°26'6 6.4
2016-May-03 14:33N 42°56' E 010°34'1312.5
2016-May-03 13:32N 42°49' E 010°19'7 7.4
2016-May-03 12:33N 42°53' E 010°27'6 1.9
2016-May-03 09:33N 42°56' E 010°34'1312.7
2016-May-03 08:33N 42°49' E 010°19'0 0.0
2016-May-03 07:33N 42°49' E 010°19'9 8.9
2016-May-03 06:34N 42°54' E 010°29'4 3.8
2016-May-03 05:34N 42°56' E 010°33'13 5.9
2016-May-03 03:24N 42°49' E 010°19'0 0.0
2016-May-03 01:33N 42°49' E 010°19'0 0.0
2016-May-03 00:32N 42°49' E 010°19'0 0.0
2016-May-02 23:33N 42°49' E 010°19'0 0.0
2016-May-02 19:31N 42°49' E 010°19'5 2.7
2016-May-02 17:33N 42°53' E 010°24'2 0.0
2016-Apr-30 15:31N 42°54' E 010°27'5 5.5
2016-Apr-30 14:33N 42°56' E 010°33'12 9.2
2016-Apr-30 13:12N 42°49' E 010°19'710.5
2016-Apr-30 12:33N 42°53' E 010°26'6 2.0
2016-Apr-30 09:33N 42°56' E 010°33'12 5.7
2016-Apr-30 07:21N 42°49' E 010°19'911.2
2016-Apr-30 06:33N 42°54' E 010°29'4 3.7
2016-Apr-30 05:32N 42°56' E 010°33'13 2.9
2016-Apr-30 01:07N 42°49' E 010°19'0 0.0
2016-Apr-29 21:33N 42°49' E 010°19'0 0.0
2016-Apr-29 20:31N 42°49' E 010°19'0 0.1
2016-Apr-29 19:34N 42°49' E 010°19'13 8.8
2016-Apr-29 18:08N 42°56' E 010°33'712.3
2016-Apr-29 17:34N 42°53' E 010°24'5 5.5
2016-Apr-29 16:33N 42°49' E 010°19'6 5.8
2016-Apr-29 15:34N 42°53' E 010°25'7 6.9
2016-Apr-29 14:33N 42°56' E 010°33'1312.5
2016-Apr-29 13:33N 42°49' E 010°19'7 6.7
2016-Apr-29 12:33N 42°53' E 010°26'6 2.0
2016-Apr-29 09:33N 42°56' E 010°33'13 5.6
2016-Apr-29 07:17N 42°49' E 010°19'1012.6
2016-Apr-29 06:32N 42°54' E 010°30'3 3.3
2016-Apr-29 05:33N 42°56' E 010°33'1311.8
2016-Apr-29 04:28N 42°49' E 010°19'0 0.0
2016-Apr-29 03:24N 42°49' E 010°19'0 0.0
2016-Apr-29 02:33N 42°49' E 010°19'0 0.0
2016-Apr-29 01:33N 42°49' E 010°19'0 0.0
2016-Apr-29 00:32N 42°49' E 010°19'0 0.0
2016-Apr-28 22:33N 42°49' E 010°19'0 0.0
2016-Apr-28 21:33N 42°49' E 010°19'0 0.0
2016-Apr-28 20:31N 42°49' E 010°19'0 0.1
2016-Apr-28 19:33N 42°49' E 010°19'1211.2
2016-Apr-28 18:28N 42°56' E 010°33'7 7.3
2016-Apr-28 17:33N 42°53' E 010°25'6 0.2
2016-Apr-27 15:18N 42°54' E 010°32'7 5.6
2016-Apr-27 14:08N 42°54' E 010°23'  

Dump ship's entire track history